createdAt,value
2023-03-07T06:02:46.391Z,1.17
2023-03-07T06:05:16.437Z,1.17
2023-03-07T06:07:53.360Z,1.13
2023-03-07T06:10:23.740Z,0.90
2023-03-07T06:13:00.365Z,1.20
2023-03-07T06:15:30.557Z,1.13
2023-03-07T06:18:09.345Z,1.00
2023-03-07T06:20:39.831Z,1.00
2023-03-07T06:23:16.329Z,1.00
2023-03-07T06:25:46.449Z,1.10
2023-03-07T06:28:23.423Z,1.08
2023-03-07T06:30:53.465Z,1.20
2023-03-07T06:33:32.399Z,1.10
2023-03-07T06:36:02.542Z,1.10
2023-03-07T06:38:39.449Z,1.20
2023-03-07T06:41:09.875Z,1.27
2023-03-07T06:43:47.400Z,1.10
2023-03-07T06:46:18.275Z,1.42
2023-03-07T06:48:58.381Z,1.30
2023-03-07T06:51:28.395Z,1.35
2023-03-07T06:54:05.492Z,1.00
2023-03-07T06:56:35.963Z,1.33
2023-03-07T06:59:12.403Z,1.02
2023-03-07T07:01:42.439Z,1.30
2023-03-07T07:04:21.413Z,1.00
2023-03-07T07:06:51.675Z,1.38
2023-03-07T07:09:28.450Z,1.17
2023-03-07T07:11:58.490Z,1.17
2023-03-07T07:14:35.503Z,0.93
2023-03-07T07:17:05.566Z,1.35
2023-03-07T07:19:45.447Z,1.23
2023-03-07T07:22:16.027Z,1.52
2023-03-07T07:24:52.478Z,1.30
2023-03-07T07:27:22.717Z,1.55
2023-03-07T07:29:59.457Z,1.73
2023-03-07T07:32:36.662Z,1.75
2023-03-07T07:35:11.032Z,1.50
2023-03-07T07:37:48.452Z,1.42
2023-03-07T07:40:18.764Z,1.50
2023-03-07T07:43:01.460Z,1.50
2023-03-07T07:45:31.554Z,1.63
2023-03-07T07:48:08.507Z,1.65
2023-03-07T07:50:41.339Z,1.50
2023-03-07T07:53:17.524Z,1.67
2023-03-07T07:55:49.091Z,1.70
2023-03-07T07:58:25.487Z,1.70
2023-03-07T08:00:55.801Z,1.80
2023-03-07T08:03:32.583Z,1.88
2023-03-07T08:06:05.469Z,2.03
2023-03-07T08:08:42.524Z,2.20
2023-03-07T08:11:12.552Z,2.30
2023-03-07T08:13:49.515Z,2.35
2023-03-07T08:16:22.731Z,2.63
2023-03-07T08:19:02.531Z,2.60
2023-03-07T08:21:35.208Z,2.35
2023-03-07T08:24:11.566Z,2.35
2023-03-07T08:26:41.732Z,2.42
2023-03-07T08:29:18.541Z,2.28
2023-03-07T08:31:51.312Z,2.97
2023-03-07T08:34:27.533Z,4.05
2023-03-07T08:37:06.577Z,3.40
2023-03-07T08:39:36.595Z,2.97
2023-03-07T08:42:13.585Z,3.20
2023-03-07T08:44:43.736Z,3.33
2023-03-07T08:47:20.700Z,3.35
2023-03-07T08:49:50.686Z,2.90
2023-03-07T08:52:29.563Z,3.05
2023-03-07T08:54:59.565Z,3.47
2023-03-07T08:57:36.578Z,3.55
2023-03-07T09:00:10.039Z,3.45
2023-03-07T09:02:46.591Z,3.33
2023-03-07T09:05:16.635Z,3.85
2023-03-07T09:07:55.521Z,3.45
2023-03-07T09:10:27.347Z,2.60
2023-03-07T09:13:03.533Z,2.88
2023-03-07T09:15:33.631Z,2.83
2023-03-07T09:18:10.666Z,2.50
2023-03-07T09:20:41.882Z,2.50
2023-03-07T09:23:21.604Z,2.10
2023-03-07T09:25:51.631Z,2.08
2023-03-07T09:28:28.618Z,2.15
2023-03-07T09:30:58.731Z,2.30
2023-03-07T09:33:35.562Z,2.50
2023-03-07T09:36:08.387Z,2.25
2023-03-07T09:38:48.572Z,2.00
2023-03-07T09:41:42.731Z,2.55
2023-03-07T09:44:30.594Z,2.47
2023-03-07T09:47:21.578Z,2.38
2023-03-07T09:49:56.965Z,3.05
2023-03-07T09:52:38.623Z,3.08
2023-03-07T09:55:18.050Z,3.28
2023-03-07T09:57:59.864Z,2.95
2023-03-07T10:00:36.202Z,3.08
2023-03-07T10:03:25.754Z,2.65
2023-03-07T10:06:00.263Z,2.30
2023-03-07T10:08:41.923Z,3.55
2023-03-07T10:11:31.837Z,3.65
2023-03-07T10:14:32.735Z,3.78
2023-03-07T10:17:16.857Z,3.33
2023-03-07T10:22:50.791Z,2.10
2023-03-07T10:25:35.772Z,1.33
2023-03-07T10:28:21.981Z,1.45
2023-03-07T10:31:00.702Z,0.90
2023-03-07T10:33:33.377Z,1.23
2023-03-07T10:36:19.997Z,1.50
2023-03-07T10:39:10.667Z,1.52
2023-03-07T10:41:40.787Z,0.70
2023-03-07T10:44:26.653Z,0.90
2023-03-07T10:47:01.156Z,0.85
2023-03-07T10:49:43.711Z,0.90
2023-03-07T10:52:33.774Z,1.30
2023-03-07T10:55:45.917Z,1.17
2023-03-07T10:58:31.593Z,1.25
2023-03-07T11:01:28.697Z,0.90
2023-03-07T11:04:05.234Z,0.98
2023-03-07T11:06:45.740Z,0.93
2023-03-07T11:09:25.422Z,1.10
2023-03-07T11:12:19.752Z,1.17
2023-03-07T11:14:54.464Z,0.90
2023-03-07T11:17:38.694Z,1.00
2023-03-07T11:20:25.482Z,1.08
2023-03-07T11:23:32.535Z,0.90
2023-03-07T11:26:25.407Z,0.85
2023-03-07T11:29:15.748Z,1.00
2023-03-07T11:32:06.421Z,1.00
2023-03-07T11:34:52.791Z,0.80
2023-03-07T11:37:33.442Z,1.00
2023-03-07T11:40:32.826Z,1.00
2023-03-07T11:43:17.558Z,0.80
2023-03-07T11:46:03.829Z,1.05
2023-03-07T11:49:00.764Z,1.00
2023-03-07T11:51:54.334Z,0.93
2023-03-07T11:54:40.790Z,0.88
2023-03-07T11:57:32.820Z,0.65
2023-03-07T12:00:28.534Z,0.90
2023-03-07T12:03:31.788Z,1.05
2023-03-07T12:06:27.279Z,0.68
2023-03-07T12:09:37.767Z,0.70
2023-03-07T12:12:40.623Z,1.00
2023-03-07T12:15:49.806Z,0.80
2023-03-07T12:18:55.780Z,0.70
2023-03-07T12:21:58.785Z,0.70
2023-03-07T12:24:38.358Z,0.93
2023-03-07T12:27:26.695Z,0.73
2023-03-07T12:30:01.406Z,1.10
2023-03-07T12:32:40.065Z,1.25
2023-03-07T12:35:21.064Z,0.98
2023-03-07T12:38:02.958Z,1.00
2023-03-07T12:40:42.819Z,1.42
2023-03-07T12:43:29.837Z,1.60
2023-03-07T12:46:12.227Z,1.20
2023-03-07T12:48:55.836Z,1.38
2023-03-07T12:51:34.239Z,1.00
2023-03-07T12:54:19.893Z,1.73
2023-03-07T12:56:59.393Z,1.10
2023-03-07T12:59:38.850Z,0.85
2023-03-07T13:02:19.264Z,1.20
2023-03-07T13:04:55.852Z,0.80
2023-03-07T13:07:29.920Z,0.93
2023-03-07T13:10:10.049Z,0.85
2023-03-07T13:12:42.697Z,0.77
2023-03-07T13:16:10.975Z,0.60
2023-03-07T13:18:41.643Z,0.85
2023-03-07T13:21:40.871Z,0.90
2023-03-07T13:24:37.768Z,0.70
2023-03-07T13:27:23.846Z,0.85
2023-03-07T13:30:30.910Z,0.80
2023-03-07T13:33:03.115Z,0.73
2023-03-07T13:36:02.905Z,0.70
2023-03-07T13:38:44.180Z,0.88
2023-03-07T13:41:22.875Z,0.80
2023-03-07T13:44:04.695Z,0.70
2023-03-07T13:47:04.885Z,0.90
2023-03-07T13:49:44.079Z,1.10
2023-03-07T13:52:49.964Z,1.13
2023-03-07T13:55:27.624Z,1.00
2023-03-07T13:58:10.941Z,1.13
